sensor_id;sensor_type;location;lat;lon;timestamp;pressure;altitude;pressure_sealevel;temperature;humidity
59329;BME280;45100;46.926;7.452;2023-07-08T00:01:12;95346.45;;;21.54;62.97
59329;BME280;45100;46.926;7.452;2023-07-08T00:03:41;95343.06;;;21.56;62.18
59329;BME280;45100;46.926;7.452;2023-07-08T00:06:16;95337.28;;;21.61;62.07
59329;BME280;45100;46.926;7.452;2023-07-08T00:08:42;95330.66;;;21.64;62.09
59329;BME280;45100;46.926;7.452;2023-07-08T00:11:14;95325.28;;;21.66;62.51
59329;BME280;45100;46.926;7.452;2023-07-08T00:13:43;95320.84;;;21.66;62.73
59329;BME280;45100;46.926;7.452;2023-07-08T00:16:16;95317.98;;;21.62;62.89
59329;BME280;45100;46.926;7.452;2023-07-08T00:18:45;95317.83;;;21.57;63.51
59329;BME280;45100;46.926;7.452;2023-07-08T00:21:18;95313.39;;;21.57;63.17
59329;BME280;45100;46.926;7.452;2023-07-08T00:23:48;95314.45;;;21.57;63.08
59329;BME280;45100;46.926;7.452;2023-07-08T00:26:30;95312.42;;;21.53;62.64
59329;BME280;45100;46.926;7.452;2023-07-08T00:28:46;95313.19;;;21.50;62.98
59329;BME280;45100;46.926;7.452;2023-07-08T00:31:17;95313.52;;;21.50;62.89
59329;BME280;45100;46.926;7.452;2023-07-08T00:33:47;95316.42;;;21.49;62.94
59329;BME280;45100;46.926;7.452;2023-07-08T00:36:18;95322.88;;;21.47;62.90
59329;BME280;45100;46.926;7.452;2023-07-08T00:41:29;95330.04;;;21.43;63.34
59329;BME280;45100;46.926;7.452;2023-07-08T00:46:37;95320.86;;;21.49;63.43
59329;BME280;45100;46.926;7.452;2023-07-08T00:51:27;95318.66;;;21.51;62.01
59329;BME280;45100;46.926;7.452;2023-07-08T00:53:58;95315.48;;;21.46;62.22
59329;BME280;45100;46.926;7.452;2023-07-08T00:56:35;95318.97;;;21.39;62.32
59329;BME280;45100;46.926;7.452;2023-07-08T00:59:04;95320.65;;;21.31;62.94
59329;BME280;45100;46.926;7.452;2023-07-08T01:01:32;95329.48;;;21.27;63.48
59329;BME280;45100;46.926;7.452;2023-07-08T01:04:09;95333.38;;;21.26;63.80
59329;BME280;45100;46.926;7.452;2023-07-08T01:06:36;95336.45;;;21.25;63.75
59329;BME280;45100;46.926;7.452;2023-07-08T01:09:08;95346.70;;;21.24;64.15
59329;BME280;45100;46.926;7.452;2023-07-08T01:11:32;95343.91;;;21.26;64.11
59329;BME280;45100;46.926;7.452;2023-07-08T01:14:05;95345.65;;;21.27;64.48
59329;BME280;45100;46.926;7.452;2023-07-08T01:16:35;95346.11;;;21.27;64.91
59329;BME280;45100;46.926;7.452;2023-07-08T01:19:04;95348.94;;;21.27;64.97
59329;BME280;45100;46.926;7.452;2023-07-08T01:21:37;95351.84;;;21.25;65.20
59329;BME280;45100;46.926;7.452;2023-07-08T01:24:06;95354.45;;;21.23;64.21
59329;BME280;45100;46.926;7.452;2023-07-08T01:26:37;95353.73;;;21.19;63.78
59329;BME280;45100;46.926;7.452;2023-07-08T01:29:06;95361.88;;;21.17;63.26
59329;BME280;45100;46.926;7.452;2023-07-08T01:31:35;95362.86;;;21.17;62.70
59329;BME280;45100;46.926;7.452;2023-07-08T01:34:08;95368.19;;;21.19;63.00
59329;BME280;45100;46.926;7.452;2023-07-08T01:36:40;95366.44;;;21.18;63.75
59329;BME280;45100;46.926;7.452;2023-07-08T01:39:10;95379.61;;;21.18;64.22
59329;BME280;45100;46.926;7.452;2023-07-08T01:41:38;95383.06;;;21.18;64.88
59329;BME280;45100;46.926;7.452;2023-07-08T01:46:41;95376.98;;;21.17;65.96
59329;BME280;45100;46.926;7.452;2023-07-08T01:49:11;95384.66;;;21.18;65.91
59329;BME280;45100;46.926;7.452;2023-07-08T01:51:42;95391.91;;;21.18;65.93
59329;BME280;45100;46.926;7.452;2023-07-08T01:54:13;95400.81;;;21.17;66.02
59329;BME280;45100;46.926;7.452;2023-07-08T01:56:44;95402.73;;;21.16;65.92
59329;BME280;45100;46.926;7.452;2023-07-08T01:59:14;95402.66;;;21.14;66.80
59329;BME280;45100;46.926;7.452;2023-07-08T02:01:45;95403.03;;;21.10;68.39
59329;BME280;45100;46.926;7.452;2023-07-08T02:04:16;95400.23;;;21.01;68.98
59329;BME280;45100;46.926;7.452;2023-07-08T02:06:57;95397.12;;;20.96;69.38
59329;BME280;45100;46.926;7.452;2023-07-08T02:09:17;95392.83;;;20.92;69.41
59329;BME280;45100;46.926;7.452;2023-07-08T02:11:48;95393.03;;;20.90;68.94
59329;BME280;45100;46.926;7.452;2023-07-08T02:14:19;95386.12;;;20.90;68.62
59329;BME280;45100;46.926;7.452;2023-07-08T02:16:49;95385.14;;;20.90;68.64
59329;BME280;45100;46.926;7.452;2023-07-08T02:19:20;95380.62;;;20.91;67.87
59329;BME280;45100;46.926;7.452;2023-07-08T02:21:50;95377.55;;;20.93;67.29
59329;BME280;45100;46.926;7.452;2023-07-08T02:24:20;95370.00;;;20.93;66.95
59329;BME280;45100;46.926;7.452;2023-07-08T02:26:51;95372.52;;;20.93;67.20
59329;BME280;45100;46.926;7.452;2023-07-08T02:29:22;95376.73;;;20.93;66.37
59329;BME280;45100;46.926;7.452;2023-07-08T02:34:26;95381.72;;;20.91;65.77
59329;BME280;45100;46.926;7.452;2023-07-08T02:36:57;95393.33;;;20.92;65.78
59329;BME280;45100;46.926;7.452;2023-07-08T02:39:26;95405.97;;;20.92;66.19
59329;BME280;45100;46.926;7.452;2023-07-08T02:41:57;95412.90;;;20.90;66.15
59329;BME280;45100;46.926;7.452;2023-07-08T02:44:28;95413.12;;;20.89;65.92
59329;BME280;45100;46.926;7.452;2023-07-08T02:46:59;95409.47;;;20.93;66.39
59329;BME280;45100;46.926;7.452;2023-07-08T02:49:30;95411.91;;;20.95;65.90
59329;BME280;45100;46.926;7.452;2023-07-08T02:51:59;95405.77;;;20.96;65.17
59329;BME280;45100;46.926;7.452;2023-07-08T02:54:30;95412.15;;;20.97;65.02
59329;BME280;45100;46.926;7.452;2023-07-08T02:57:01;95421.70;;;20.96;65.46
59329;BME280;45100;46.926;7.452;2023-07-08T02:59:32;95421.38;;;20.90;66.09
59329;BME280;45100;46.926;7.452;2023-07-08T03:02:03;95424.87;;;20.88;66.66
59329;BME280;45100;46.926;7.452;2023-07-08T03:04:33;95437.23;;;20.87;66.57
59329;BME280;45100;46.926;7.452;2023-07-08T03:07:05;95448.79;;;20.87;66.10
59329;BME280;45100;46.926;7.452;2023-07-08T03:12:09;95448.59;;;20.89;67.91
59329;BME280;45100;46.926;7.452;2023-07-08T03:14:38;95457.58;;;20.89;67.66
59329;BME280;45100;46.926;7.452;2023-07-08T03:19:41;95454.84;;;20.82;68.50
59329;BME280;45100;46.926;7.452;2023-07-08T03:22:11;95453.27;;;20.77;70.12
59329;BME280;45100;46.926;7.452;2023-07-08T03:24:47;95455.06;;;20.72;69.87
59329;BME280;45100;46.926;7.452;2023-07-08T03:27:15;95459.97;;;20.67;70.83
59329;BME280;45100;46.926;7.452;2023-07-08T03:29:43;95468.02;;;20.61;71.00
59329;BME280;45100;46.926;7.452;2023-07-08T03:32:14;95472.72;;;20.55;70.84
59329;BME280;45100;46.926;7.452;2023-07-08T03:34:44;95478.11;;;20.52;71.11
59329;BME280;45100;46.926;7.452;2023-07-08T03:37:15;95482.09;;;20.53;71.95
59329;BME280;45100;46.926;7.452;2023-07-08T03:39:46;95486.75;;;20.53;71.01
59329;BME280;45100;46.926;7.452;2023-07-08T03:44:49;95508.77;;;20.46;72.63
59329;BME280;45100;46.926;7.452;2023-07-08T03:47:20;95521.52;;;20.38;74.22
59329;BME280;45100;46.926;7.452;2023-07-08T03:49:51;95531.95;;;20.26;74.28
59329;BME280;45100;46.926;7.452;2023-07-08T03:52:22;95535.84;;;20.13;74.79
59329;BME280;45100;46.926;7.452;2023-07-08T03:54:51;95549.71;;;19.99;75.57
59329;BME280;45100;46.926;7.452;2023-07-08T03:57:22;95557.86;;;19.86;75.82
59329;BME280;45100;46.926;7.452;2023-07-08T03:59:53;95575.37;;;19.79;76.08
59329;BME280;45100;46.926;7.452;2023-07-08T04:02:24;95593.32;;;19.73;76.59
59329;BME280;45100;46.926;7.452;2023-07-08T04:07:27;95612.69;;;19.60;78.02
59329;BME280;45100;46.926;7.452;2023-07-08T04:09:57;95618.88;;;19.54;78.89
59329;BME280;45100;46.926;7.452;2023-07-08T04:12:28;95624.30;;;19.51;79.68
59329;BME280;45100;46.926;7.452;2023-07-08T04:14:59;95624.89;;;19.51;78.96
59329;BME280;45100;46.926;7.452;2023-07-08T04:17:29;95633.34;;;19.57;78.28
59329;BME280;45100;46.926;7.452;2023-07-08T04:20:05;95636.48;;;19.64;78.74
59329;BME280;45100;46.926;7.452;2023-07-08T04:22:30;95645.70;;;19.65;78.72
59329;BME280;45100;46.926;7.452;2023-07-08T04:25:01;95653.53;;;19.64;80.85
59329;BME280;45100;46.926;7.452;2023-07-08T04:27:32;95664.20;;;19.59;81.44
59329;BME280;45100;46.926;7.452;2023-07-08T04:30:06;95680.16;;;19.56;82.09
59329;BME280;45100;46.926;7.452;2023-07-08T04:32:33;95690.38;;;19.53;82.54
59329;BME280;45100;46.926;7.452;2023-07-08T04:35:05;95702.29;;;19.49;83.33
59329;BME280;45100;46.926;7.452;2023-07-08T04:37:35;95706.41;;;19.42;83.83
59329;BME280;45100;46.926;7.452;2023-07-08T04:40:16;95714.59;;;19.37;83.89
59329;BME280;45100;46.926;7.452;2023-07-08T04:42:35;95722.67;;;19.35;84.18
59329;BME280;45100;46.926;7.452;2023-07-08T04:45:07;95735.94;;;19.34;84.85
59329;BME280;45100;46.926;7.452;2023-07-08T04:47:36;95754.99;;;19.28;85.40
59329;BME280;45100;46.926;7.452;2023-07-08T04:50:08;95771.71;;;19.18;85.55
59329;BME280;45100;46.926;7.452;2023-07-08T04:52:37;95785.06;;;19.11;85.87
59329;BME280;45100;46.926;7.452;2023-07-08T04:55:08;95791.00;;;19.07;85.98
59329;BME280;45100;46.926;7.452;2023-07-08T04:57:38;95794.62;;;19.09;86.97
59329;BME280;45100;46.926;7.452;2023-07-08T05:02:43;95788.34;;;19.13;86.54
59329;BME280;45100;46.926;7.452;2023-07-08T05:05:13;95776.11;;;19.11;86.68
59329;BME280;45100;46.926;7.452;2023-07-08T05:07:44;95770.96;;;19.09;86.92
59329;BME280;45100;46.926;7.452;2023-07-08T05:10:15;95766.28;;;19.08;87.19
59329;BME280;45100;46.926;7.452;2023-07-08T05:12:46;95774.45;;;19.07;87.58
59329;BME280;45100;46.926;7.452;2023-07-08T05:17:50;95778.65;;;18.96;88.44
59329;BME280;45100;46.926;7.452;2023-07-08T05:20:20;95782.74;;;18.94;88.48
59329;BME280;45100;46.926;7.452;2023-07-08T05:22:51;95778.41;;;18.94;87.91
59329;BME280;45100;46.926;7.452;2023-07-08T05:25:21;95773.83;;;18.89;86.97
59329;BME280;45100;46.926;7.452;2023-07-08T05:27:52;95770.22;;;18.87;86.79
59329;BME280;45100;46.926;7.452;2023-07-08T05:30:23;95766.23;;;18.84;86.78
59329;BME280;45100;46.926;7.452;2023-07-08T05:32:54;95759.88;;;18.80;87.31
59329;BME280;45100;46.926;7.452;2023-07-08T05:35:25;95760.97;;;18.75;87.34
59329;BME280;45100;46.926;7.452;2023-07-08T05:37:55;95766.59;;;18.71;87.73
59329;BME280;45100;46.926;7.452;2023-07-08T05:42:59;95782.84;;;18.71;87.04
59329;BME280;45100;46.926;7.452;2023-07-08T05:45:29;95787.12;;;18.72;86.67
59329;BME280;45100;46.926;7.452;2023-07-08T05:48:00;95788.10;;;18.72;86.25
59329;BME280;45100;46.926;7.452;2023-07-08T05:50:31;95795.50;;;18.68;87.13
59329;BME280;45100;46.926;7.452;2023-07-08T05:53:02;95800.82;;;18.62;87.82
59329;BME280;45100;46.926;7.452;2023-07-08T05:55:32;95794.72;;;18.61;87.96
59329;BME280;45100;46.926;7.452;2023-07-08T05:58:03;95781.45;;;18.59;87.18
59329;BME280;45100;46.926;7.452;2023-07-08T06:00:34;95763.93;;;18.59;87.61
59329;BME280;45100;46.926;7.452;2023-07-08T06:03:05;95756.70;;;18.60;88.63
59329;BME280;45100;46.926;7.452;2023-07-08T06:05:38;95758.66;;;18.63;89.49
59329;BME280;45100;46.926;7.452;2023-07-08T06:08:06;95773.58;;;18.67;90.00
59329;BME280;45100;46.926;7.452;2023-07-08T06:10:41;95787.97;;;18.68;90.59
59329;BME280;45100;46.926;7.452;2023-07-08T06:13:07;95817.17;;;18.69;90.90
59329;BME280;45100;46.926;7.452;2023-07-08T06:15:38;95829.92;;;18.68;90.63
59329;BME280;45100;46.926;7.452;2023-07-08T06:18:08;95822.07;;;18.68;89.58
59329;BME280;45100;46.926;7.452;2023-07-08T06:20:38;95814.86;;;18.68;87.80
59329;BME280;45100;46.926;7.452;2023-07-08T06:23:08;95819.44;;;18.65;87.25
59329;BME280;45100;46.926;7.452;2023-07-08T06:25:39;95831.42;;;18.62;87.51
59329;BME280;45100;46.926;7.452;2023-07-08T06:28:10;95827.33;;;18.62;87.73
59329;BME280;45100;46.926;7.452;2023-07-08T06:30:41;95816.17;;;18.65;87.97
59329;BME280;45100;46.926;7.452;2023-07-08T06:33:12;95801.88;;;18.70;87.80
59329;BME280;45100;46.926;7.452;2023-07-08T06:35:42;95800.79;;;18.76;86.90
59329;BME280;45100;46.926;7.452;2023-07-08T06:40:46;95819.56;;;18.90;86.99
59329;BME280;45100;46.926;7.452;2023-07-08T06:43:16;95820.27;;;18.91;87.22
59329;BME280;45100;46.926;7.452;2023-07-08T06:45:47;95825.67;;;18.88;87.55
59329;BME280;45100;46.926;7.452;2023-07-08T06:50:51;95820.91;;;18.86;89.16
59329;BME280;45100;46.926;7.452;2023-07-08T06:53:21;95816.00;;;18.88;89.99
59329;BME280;45100;46.926;7.452;2023-07-08T06:55:52;95797.91;;;18.93;90.32
59329;BME280;45100;46.926;7.452;2023-07-08T06:58:23;95775.16;;;18.99;90.09
59329;BME280;45100;46.926;7.452;2023-07-08T07:00:54;95759.78;;;19.05;89.47
59329;BME280;45100;46.926;7.452;2023-07-08T07:03:25;95755.38;;;19.14;89.96
59329;BME280;45100;46.926;7.452;2023-07-08T07:05:55;95759.85;;;19.28;90.01
59329;BME280;45100;46.926;7.452;2023-07-08T07:08:25;95753.27;;;19.38;89.00
59329;BME280;45100;46.926;7.452;2023-07-08T07:10:56;95753.60;;;19.45;89.61
59329;BME280;45100;46.926;7.452;2023-07-08T07:13:27;95748.95;;;19.53;89.95
59329;BME280;45100;46.926;7.452;2023-07-08T07:15:58;95750.52;;;19.62;90.14
59329;BME280;45100;46.926;7.452;2023-07-08T07:18:28;95748.63;;;19.71;90.51
59329;BME280;45100;46.926;7.452;2023-07-08T07:20:59;95741.84;;;19.82;90.07
59329;BME280;45100;46.926;7.452;2023-07-08T07:23:30;95744.95;;;19.89;89.52
59329;BME280;45100;46.926;7.452;2023-07-08T07:26:01;95748.83;;;19.97;89.06
59329;BME280;45100;46.926;7.452;2023-07-08T07:28:31;95754.42;;;20.06;88.95
59329;BME280;45100;46.926;7.452;2023-07-08T07:31:03;95754.14;;;20.13;88.74
59329;BME280;45100;46.926;7.452;2023-07-08T07:33:33;95760.34;;;20.22;87.33
59329;BME280;45100;46.926;7.452;2023-07-08T07:36:03;95761.13;;;20.30;84.70
59329;BME280;45100;46.926;7.452;2023-07-08T07:38:34;95764.47;;;20.36;83.40
59329;BME280;45100;46.926;7.452;2023-07-08T07:41:07;95768.17;;;20.41;81.43
59329;BME280;45100;46.926;7.452;2023-07-08T07:43:35;95767.34;;;20.44;79.80
59329;BME280;45100;46.926;7.452;2023-07-08T07:46:06;95764.25;;;20.45;80.03
59329;BME280;45100;46.926;7.452;2023-07-08T07:48:36;95758.52;;;20.48;79.69
59329;BME280;45100;46.926;7.452;2023-07-08T07:51:07;95762.28;;;20.50;79.87
59329;BME280;45100;46.926;7.452;2023-07-08T07:53:37;95763.87;;;20.50;80.27
59329;BME280;45100;46.926;7.452;2023-07-08T07:56:07;95761.86;;;20.47;81.33
59329;BME280;45100;46.926;7.452;2023-07-08T07:58:38;95755.74;;;20.45;82.28
59329;BME280;45100;46.926;7.452;2023-07-08T08:03:41;95758.55;;;20.42;82.90
59329;BME280;45100;46.926;7.452;2023-07-08T08:06:11;95760.39;;;20.40;83.23
59329;BME280;45100;46.926;7.452;2023-07-08T08:08:42;95764.80;;;20.35;83.58
59329;BME280;45100;46.926;7.452;2023-07-08T08:11:13;95763.12;;;20.28;84.19
59329;BME280;45100;46.926;7.452;2023-07-08T08:13:44;95760.89;;;20.21;84.92
59329;BME280;45100;46.926;7.452;2023-07-08T08:16:14;95761.19;;;20.13;85.36
59329;BME280;45100;46.926;7.452;2023-07-08T08:18:45;95757.55;;;20.08;85.57
59329;BME280;45100;46.926;7.452;2023-07-08T08:21:15;95756.56;;;20.04;86.25
59329;BME280;45100;46.926;7.452;2023-07-08T08:23:46;95751.87;;;20.01;86.95
59329;BME280;45100;46.926;7.452;2023-07-08T08:26:17;95745.91;;;20.02;87.30
59329;BME280;45100;46.926;7.452;2023-07-08T08:28:48;95745.56;;;20.06;88.15
59329;BME280;45100;46.926;7.452;2023-07-08T08:31:19;95744.19;;;20.13;87.70
59329;BME280;45100;46.926;7.452;2023-07-08T08:33:51;95744.84;;;20.17;86.51
59329;BME280;45100;46.926;7.452;2023-07-08T08:36:21;95747.12;;;20.19;85.78
59329;BME280;45100;46.926;7.452;2023-07-08T08:38:50;95742.53;;;20.20;85.06
59329;BME280;45100;46.926;7.452;2023-07-08T08:41:29;95741.69;;;20.26;85.53
59329;BME280;45100;46.926;7.452;2023-07-08T08:43:52;95741.73;;;20.33;85.24
59329;BME280;45100;46.926;7.452;2023-07-08T08:49:18;95753.81;;;20.53;84.61
59329;BME280;45100;46.926;7.452;2023-07-08T08:51:26;95750.14;;;20.68;84.04
59329;BME280;45100;46.926;7.452;2023-07-08T08:53:56;95749.28;;;20.85;83.51
59329;BME280;45100;46.926;7.452;2023-07-08T08:56:31;95742.08;;;21.02;83.42
59329;BME280;45100;46.926;7.452;2023-07-08T08:59:23;95740.44;;;21.15;83.30
59329;BME280;45100;46.926;7.452;2023-07-08T09:01:25;95732.77;;;21.25;82.24
59329;BME280;45100;46.926;7.452;2023-07-08T09:03:59;95726.61;;;21.28;81.53
59329;BME280;45100;46.926;7.452;2023-07-08T09:06:28;95721.84;;;21.30;81.88
59329;BME280;45100;46.926;7.452;2023-07-08T09:09:01;95722.23;;;21.33;82.46
59329;BME280;45100;46.926;7.452;2023-07-08T09:13:57;95716.79;;;21.42;81.31
59329;BME280;45100;46.926;7.452;2023-07-08T09:16:47;95714.19;;;21.49;82.40
59329;BME280;45100;46.926;7.452;2023-07-08T09:19:04;95712.85;;;21.58;82.30
59329;BME280;45100;46.926;7.452;2023-07-08T09:21:54;95709.20;;;21.68;81.85
59329;BME280;45100;46.926;7.452;2023-07-08T09:24:08;95701.58;;;21.80;81.84
59329;BME280;45100;46.926;7.452;2023-07-08T09:26:32;95703.95;;;21.89;81.79
59329;BME280;45100;46.926;7.452;2023-07-08T09:29:01;95703.53;;;22.00;81.04
59329;BME280;45100;46.926;7.452;2023-07-08T09:31:37;95699.56;;;22.10;76.61
59329;BME280;45100;46.926;7.452;2023-07-08T09:34:08;95698.39;;;22.20;77.26
59329;BME280;45100;46.926;7.452;2023-07-08T09:36:33;95686.48;;;22.29;75.61
59329;BME280;45100;46.926;7.452;2023-07-08T09:39:04;95684.10;;;22.36;75.14
59329;BME280;45100;46.926;7.452;2023-07-08T09:41:35;95680.31;;;22.44;75.04
59329;BME280;45100;46.926;7.452;2023-07-08T09:44:21;95681.64;;;22.55;76.11
59329;BME280;45100;46.926;7.452;2023-07-08T09:46:36;95688.32;;;22.66;75.38
59329;BME280;45100;46.926;7.452;2023-07-08T09:51:39;95681.91;;;22.81;74.88
59329;BME280;45100;46.926;7.452;2023-07-08T09:54:10;95689.02;;;22.96;73.25
59329;BME280;45100;46.926;7.452;2023-07-08T09:56:45;95682.83;;;23.13;73.27
59329;BME280;45100;46.926;7.452;2023-07-08T09:59:14;95675.53;;;23.26;71.30
59329;BME280;45100;46.926;7.452;2023-07-08T10:01:42;95672.64;;;23.31;70.07
59329;BME280;45100;46.926;7.452;2023-07-08T10:04:11;95674.62;;;23.30;69.67
59329;BME280;45100;46.926;7.452;2023-07-08T10:06:43;95678.80;;;23.27;71.16
59329;BME280;45100;46.926;7.452;2023-07-08T10:09:23;95676.14;;;23.23;70.10
59329;BME280;45100;46.926;7.452;2023-07-08T10:11:46;95679.50;;;23.25;71.16
59329;BME280;45100;46.926;7.452;2023-07-08T10:16:43;95679.19;;;23.44;69.82
59329;BME280;45100;46.926;7.452;2023-07-08T10:19:17;95674.30;;;23.54;69.54
59329;BME280;45100;46.926;7.452;2023-07-08T10:24:27;95671.22;;;23.78;68.12
59329;BME280;45100;46.926;7.452;2023-07-08T10:26:49;95671.27;;;23.90;66.58
59329;BME280;45100;46.926;7.452;2023-07-08T10:29:42;95663.73;;;24.09;66.41
59329;BME280;45100;46.926;7.452;2023-07-08T10:32:24;95668.36;;;24.34;64.51
59329;BME280;45100;46.926;7.452;2023-07-08T10:36:51;95658.42;;;24.82;62.00
59329;BME280;45100;46.926;7.452;2023-07-08T10:42:03;95660.50;;;25.05;59.40
59329;BME280;45100;46.926;7.452;2023-07-08T10:44:35;95662.58;;;25.00;61.04
59329;BME280;45100;46.926;7.452;2023-07-08T10:52:02;95648.00;;;24.85;60.63
59329;BME280;45100;46.926;7.452;2023-07-08T10:54:33;95647.66;;;24.76;60.56
59329;BME280;45100;46.926;7.452;2023-07-08T10:57:00;95656.33;;;24.70;60.84
59329;BME280;45100;46.926;7.452;2023-07-08T11:04:55;95642.70;;;24.64;60.88
59329;BME280;45100;46.926;7.452;2023-07-08T11:06:59;95644.75;;;24.69;61.16
59329;BME280;45100;46.926;7.452;2023-07-08T11:09:44;95647.27;;;24.74;59.74
59329;BME280;45100;46.926;7.452;2023-07-08T11:14:35;95645.11;;;24.77;58.98
59329;BME280;45100;46.926;7.452;2023-07-08T11:19:35;95634.42;;;24.91;60.49
59329;BME280;45100;46.926;7.452;2023-07-08T11:22:00;95634.50;;;24.95;60.56
59329;BME280;45100;46.926;7.452;2023-07-08T11:24:41;95630.33;;;25.01;60.24
59329;BME280;45100;46.926;7.452;2023-07-08T11:27:04;95631.17;;;25.13;60.39
59329;BME280;45100;46.926;7.452;2023-07-08T11:29:40;95626.59;;;25.24;58.85
59329;BME280;45100;46.926;7.452;2023-07-08T11:31:59;95619.54;;;25.31;56.63
59329;BME280;45100;46.926;7.452;2023-07-08T11:34:29;95620.16;;;25.37;57.94
59329;BME280;45100;46.926;7.452;2023-07-08T11:37:00;95618.58;;;25.43;59.22
59329;BME280;45100;46.926;7.452;2023-07-08T11:42:23;95615.41;;;25.59;58.10
59329;BME280;45100;46.926;7.452;2023-07-08T11:44:34;95609.61;;;25.65;56.97
59329;BME280;45100;46.926;7.452;2023-07-08T11:47:17;95603.81;;;25.69;57.16
59329;BME280;45100;46.926;7.452;2023-07-08T11:49:36;95600.50;;;25.74;56.18
59329;BME280;45100;46.926;7.452;2023-07-08T11:52:13;95602.23;;;25.82;58.34
59329;BME280;45100;46.926;7.452;2023-07-08T11:54:36;95598.88;;;25.88;56.21
59329;BME280;45100;46.926;7.452;2023-07-08T11:57:07;95601.29;;;25.87;55.53
59329;BME280;45100;46.926;7.452;2023-07-08T11:59:38;95599.35;;;25.87;55.01
59329;BME280;45100;46.926;7.452;2023-07-08T12:02:17;95597.89;;;25.92;55.05
59329;BME280;45100;46.926;7.452;2023-07-08T12:07:30;95596.55;;;26.09;54.48
59329;BME280;45100;46.926;7.452;2023-07-08T12:12:21;95596.38;;;26.20;51.04
59329;BME280;45100;46.926;7.452;2023-07-08T12:14:39;95591.12;;;26.26;49.47
59329;BME280;45100;46.926;7.452;2023-07-08T12:17:14;95586.47;;;26.32;52.21
59329;BME280;45100;46.926;7.452;2023-07-08T12:22:14;95583.81;;;26.48;51.73
59329;BME280;45100;46.926;7.452;2023-07-08T12:24:45;95581.41;;;26.57;51.56
59329;BME280;45100;46.926;7.452;2023-07-08T12:27:15;95576.55;;;26.69;51.24
59329;BME280;45100;46.926;7.452;2023-07-08T12:29:46;95573.14;;;26.81;49.96
59329;BME280;45100;46.926;7.452;2023-07-08T12:32:17;95566.69;;;26.88;48.49
59329;BME280;45100;46.926;7.452;2023-07-08T12:34:47;95566.47;;;26.88;48.52
59329;BME280;45100;46.926;7.452;2023-07-08T12:37:18;95566.09;;;26.91;51.68
59329;BME280;45100;46.926;7.452;2023-07-08T12:39:55;95564.95;;;26.96;49.34
59329;BME280;45100;46.926;7.452;2023-07-08T12:44:54;95557.22;;;27.07;50.25
59329;BME280;45100;46.926;7.452;2023-07-08T12:47:24;95553.23;;;27.18;49.31
59329;BME280;45100;46.926;7.452;2023-07-08T12:49:55;95549.16;;;27.27;47.83
59329;BME280;45100;46.926;7.452;2023-07-08T12:52:26;95552.33;;;27.35;48.63
59329;BME280;45100;46.926;7.452;2023-07-08T12:54:56;95553.20;;;27.44;49.05
59329;BME280;45100;46.926;7.452;2023-07-08T12:57:27;95551.17;;;27.52;48.57
59329;BME280;45100;46.926;7.452;2023-07-08T12:59:58;95553.98;;;27.59;48.79
59329;BME280;45100;46.926;7.452;2023-07-08T13:02:30;95549.45;;;27.66;49.07
59329;BME280;45100;46.926;7.452;2023-07-08T13:05:00;95545.88;;;27.72;48.65
59329;BME280;45100;46.926;7.452;2023-07-08T13:07:40;95548.25;;;27.79;48.23
59329;BME280;45100;46.926;7.452;2023-07-08T13:10:00;95548.05;;;27.88;45.95
59329;BME280;45100;46.926;7.452;2023-07-08T13:12:31;95545.03;;;27.90;47.08
59329;BME280;45100;46.926;7.452;2023-07-08T13:15:02;95548.14;;;27.91;47.25
59329;BME280;45100;46.926;7.452;2023-07-08T13:17:31;95548.80;;;27.95;47.79
59329;BME280;45100;46.926;7.452;2023-07-08T13:20:02;95546.66;;;28.00;46.97
59329;BME280;45100;46.926;7.452;2023-07-08T13:22:32;95550.25;;;28.03;46.19
59329;BME280;45100;46.926;7.452;2023-07-08T13:25:10;95550.70;;;28.00;45.43
59329;BME280;45100;46.926;7.452;2023-07-08T13:30:19;95548.44;;;27.94;46.00
59329;BME280;45100;46.926;7.452;2023-07-08T13:32:37;95553.31;;;27.96;46.67
59329;BME280;45100;46.926;7.452;2023-07-08T13:35:26;95553.26;;;28.01;44.07
59329;BME280;45100;46.926;7.452;2023-07-08T13:40:11;95544.95;;;27.99;44.56
59329;BME280;45100;46.926;7.452;2023-07-08T13:42:47;95552.18;;;28.03;45.37
59329;BME280;45100;46.926;7.452;2023-07-08T13:45:18;95551.88;;;28.13;46.37
59329;BME280;45100;46.926;7.452;2023-07-08T13:47:42;95547.64;;;28.27;45.05
59329;BME280;45100;46.926;7.452;2023-07-08T13:50:23;95546.44;;;28.37;44.87
59329;BME280;45100;46.926;7.452;2023-07-08T13:52:43;95545.99;;;28.46;43.42
59329;BME280;45100;46.926;7.452;2023-07-08T13:55:18;95541.72;;;28.55;43.29
59329;BME280;45100;46.926;7.452;2023-07-08T14:00:17;95538.31;;;28.68;43.43
59329;BME280;45100;46.926;7.452;2023-07-08T14:02:47;95544.59;;;28.77;43.50
59329;BME280;45100;46.926;7.452;2023-07-08T14:05:22;95542.26;;;28.81;40.54
59329;BME280;45100;46.926;7.452;2023-07-08T14:07:51;95539.14;;;28.82;40.86
59329;BME280;45100;46.926;7.452;2023-07-08T14:10:19;95545.72;;;28.78;40.50
59329;BME280;45100;46.926;7.452;2023-07-08T14:12:50;95543.08;;;28.72;40.29
59329;BME280;45100;46.926;7.452;2023-07-08T14:15:20;95543.91;;;28.69;40.86
59329;BME280;45100;46.926;7.452;2023-07-08T14:17:51;95541.72;;;28.70;41.63
59329;BME280;45100;46.926;7.452;2023-07-08T14:20:23;95541.70;;;28.73;41.27
59329;BME280;45100;46.926;7.452;2023-07-08T14:22:53;95544.72;;;28.78;41.97
59329;BME280;45100;46.926;7.452;2023-07-08T14:25:24;95542.88;;;28.79;41.14
59329;BME280;45100;46.926;7.452;2023-07-08T14:27:54;95542.49;;;28.83;41.33
59329;BME280;45100;46.926;7.452;2023-07-08T14:30:25;95543.47;;;28.84;41.45
59329;BME280;45100;46.926;7.452;2023-07-08T14:32:56;95542.26;;;28.86;42.10
59329;BME280;45100;46.926;7.452;2023-07-08T14:35:28;95544.99;;;28.88;41.54
59329;BME280;45100;46.926;7.452;2023-07-08T14:40:34;95548.69;;;28.79;41.50
59329;BME280;45100;46.926;7.452;2023-07-08T14:43:04;95548.39;;;28.67;41.22
59329;BME280;45100;46.926;7.452;2023-07-08T14:45:35;95552.45;;;28.58;42.44
59329;BME280;45100;46.926;7.452;2023-07-08T14:47:59;95544.96;;;28.53;42.77
59329;BME280;45100;46.926;7.452;2023-07-08T14:50:30;95545.77;;;28.47;43.66